createdAt,value
2022-10-13T00:00:25.036Z,0.00
2022-10-13T00:01:25.107Z,0.00
2022-10-13T00:02:25.010Z,0.00
2022-10-13T00:03:25.019Z,0.00
2022-10-13T00:04:25.036Z,0.00
2022-10-13T00:05:24.989Z,0.00
2022-10-13T00:06:25.024Z,0.00
2022-10-13T00:07:25.144Z,0.00
2022-10-13T00:08:24.955Z,0.00
2022-10-13T00:09:24.952Z,0.00
2022-10-13T00:10:24.979Z,0.00
2022-10-13T00:11:24.988Z,0.00
2022-10-13T00:12:24.955Z,0.00
2022-10-13T00:13:24.999Z,0.00
2022-10-13T00:14:24.954Z,0.00
2022-10-13T00:15:24.912Z,0.00
2022-10-13T00:16:24.891Z,0.00
2022-10-13T00:17:24.903Z,0.00
2022-10-13T00:18:24.860Z,0.00
2022-10-13T00:19:24.909Z,0.00
2022-10-13T00:20:24.836Z,0.00
2022-10-13T00:21:25.283Z,0.00
2022-10-13T00:22:24.821Z,0.00
2022-10-13T00:23:24.819Z,0.00
2022-10-13T00:24:24.800Z,0.00
2022-10-13T00:25:24.847Z,0.00
2022-10-13T00:26:24.902Z,0.00
2022-10-13T00:27:24.771Z,0.00
2022-10-13T00:28:24.833Z,0.00
2022-10-13T00:29:24.756Z,0.00
2022-10-13T00:30:24.734Z,0.00
2022-10-13T00:31:24.787Z,0.00
2022-10-13T00:32:24.739Z,0.00
2022-10-13T00:33:24.717Z,0.00
2022-10-13T00:34:24.707Z,0.00
2022-10-13T00:35:24.777Z,0.00
2022-10-13T00:36:24.731Z,0.00
2022-10-13T00:37:24.693Z,0.00
2022-10-13T00:38:24.677Z,0.00
2022-10-13T00:39:24.712Z,0.00
2022-10-13T00:40:24.647Z,0.00
2022-10-13T00:41:24.633Z,0.00
2022-10-13T00:42:24.618Z,0.00
2022-10-13T00:43:24.617Z,0.00
2022-10-13T00:44:24.643Z,0.00
2022-10-13T00:45:24.596Z,0.00
2022-10-13T00:46:24.623Z,0.00
2022-10-13T00:47:24.573Z,0.00
2022-10-13T00:48:24.561Z,0.00
2022-10-13T00:49:24.603Z,0.00
2022-10-13T00:50:24.578Z,0.00
2022-10-13T00:51:24.592Z,0.00
2022-10-13T00:52:24.519Z,0.00
2022-10-13T00:53:24.557Z,0.00
2022-10-13T00:54:24.499Z,0.00
2022-10-13T00:55:24.495Z,0.00
2022-10-13T00:56:24.482Z,0.00
2022-10-13T00:57:24.486Z,0.00
2022-10-13T00:58:24.496Z,0.00
2022-10-13T00:59:24.585Z,0.00
2022-10-13T01:00:24.451Z,0.00
2022-10-13T01:01:24.445Z,0.00
2022-10-13T01:02:24.417Z,0.00
2022-10-13T01:03:24.489Z,0.00
2022-10-13T01:04:24.407Z,0.00
2022-10-13T01:05:24.414Z,0.00
2022-10-13T01:06:24.422Z,0.00
2022-10-13T01:07:24.423Z,0.00
2022-10-13T01:08:24.404Z,0.00
2022-10-13T01:09:24.380Z,0.00
2022-10-13T01:10:24.367Z,0.00
2022-10-13T01:11:24.395Z,0.00
2022-10-13T01:12:24.338Z,0.00
2022-10-13T01:13:24.312Z,0.00
2022-10-13T01:14:24.352Z,0.00
2022-10-13T01:15:24.299Z,0.00
2022-10-13T01:16:24.278Z,0.00
2022-10-13T01:17:24.325Z,0.00
2022-10-13T01:18:24.388Z,0.00
2022-10-13T01:19:24.305Z,0.00
2022-10-13T01:20:24.289Z,0.00
2022-10-13T01:21:24.250Z,0.00
2022-10-13T01:22:24.394Z,0.00
2022-10-13T01:23:24.291Z,0.00
2022-10-13T01:24:24.235Z,0.00
2022-10-13T01:25:24.200Z,0.00
2022-10-13T01:26:24.277Z,0.00
2022-10-13T01:27:24.174Z,0.00
2022-10-13T01:28:24.243Z,0.00
2022-10-13T01:29:24.181Z,0.00
2022-10-13T01:30:24.204Z,0.00
2022-10-13T01:31:24.153Z,0.00
2022-10-13T01:32:24.192Z,0.00
2022-10-13T01:33:24.150Z,0.00
2022-10-13T01:34:24.102Z,0.00
2022-10-13T01:35:24.130Z,0.00
2022-10-13T01:36:24.147Z,0.00
2022-10-13T01:37:24.080Z,0.00
2022-10-13T01:38:24.091Z,0.00
2022-10-13T01:39:24.188Z,0.00
2022-10-13T01:40:24.095Z,0.00
2022-10-13T01:41:24.067Z,0.00
2022-10-13T01:42:24.030Z,0.00
2022-10-13T01:43:24.060Z,0.00
2022-10-13T01:44:24.002Z,0.00
2022-10-13T01:45:24.049Z,0.00
2022-10-13T01:46:24.008Z,0.00
2022-10-13T01:47:24.068Z,0.00
2022-10-13T01:48:23.993Z,0.00
2022-10-13T01:49:24.022Z,0.00
2022-10-13T01:50:23.959Z,0.00
2022-10-13T01:51:23.943Z,0.00
2022-10-13T01:52:23.972Z,0.00
2022-10-13T01:53:23.992Z,0.00
2022-10-13T01:54:23.990Z,0.00
2022-10-13T01:55:23.898Z,0.00
2022-10-13T01:56:23.951Z,0.00
2022-10-13T01:57:23.877Z,0.00
2022-10-13T01:58:23.954Z,0.00
2022-10-13T01:59:23.862Z,0.00
2022-10-13T02:00:23.897Z,0.00
2022-10-13T02:01:23.850Z,0.00
2022-10-13T02:02:23.837Z,0.00
2022-10-13T02:03:23.886Z,0.00
2022-10-13T02:04:23.817Z,0.00
2022-10-13T02:05:23.809Z,0.00
2022-10-13T02:06:23.824Z,0.00
2022-10-13T02:07:23.821Z,0.00
2022-10-13T02:08:23.803Z,0.00
2022-10-13T02:09:23.835Z,0.00
2022-10-13T02:10:23.765Z,0.00
2022-10-13T02:11:23.775Z,0.00
2022-10-13T02:12:23.801Z,0.00
2022-10-13T02:13:23.717Z,0.00
2022-10-13T02:14:23.722Z,0.00
2022-10-13T02:15:23.707Z,0.00
2022-10-13T02:16:23.794Z,0.00
2022-10-13T02:17:23.690Z,0.00
2022-10-13T02:18:23.681Z,0.00
2022-10-13T02:19:23.850Z,0.00
2022-10-13T02:20:23.664Z,0.00
2022-10-13T02:21:23.676Z,0.00
2022-10-13T02:22:23.671Z,0.00
2022-10-13T02:23:23.646Z,0.00
2022-10-13T02:24:23.682Z,0.00
2022-10-13T02:25:23.671Z,0.00
2022-10-13T02:26:23.622Z,0.00
2022-10-13T02:27:23.585Z,0.00
2022-10-13T02:28:23.672Z,0.00
2022-10-13T02:29:23.562Z,0.00
2022-10-13T02:30:23.787Z,0.00
2022-10-13T02:31:23.600Z,0.00
2022-10-13T02:32:23.557Z,0.00
2022-10-13T02:33:23.566Z,0.00
2022-10-13T02:34:23.524Z,0.00
2022-10-13T02:35:23.501Z,0.00
2022-10-13T02:36:23.562Z,0.00
2022-10-13T02:37:23.538Z,0.00
2022-10-13T02:38:23.511Z,0.00
2022-10-13T02:39:23.460Z,0.00
2022-10-13T02:40:23.498Z,0.00
2022-10-13T02:41:23.495Z,0.00
2022-10-13T02:42:23.689Z,0.00
2022-10-13T02:43:23.439Z,0.00
2022-10-13T02:44:23.507Z,0.00
2022-10-13T02:45:23.430Z,0.00
2022-10-13T02:46:23.442Z,0.00
2022-10-13T02:47:23.386Z,0.00
2022-10-13T02:48:23.463Z,0.00
2022-10-13T02:49:23.422Z,0.00
2022-10-13T02:50:23.365Z,0.00
2022-10-13T02:51:23.394Z,0.00
2022-10-13T02:52:23.509Z,0.00
2022-10-13T02:53:23.369Z,0.00
2022-10-13T02:54:23.353Z,0.00
2022-10-13T02:55:23.314Z,0.00
2022-10-13T02:56:23.346Z,0.00
2022-10-13T02:57:23.364Z,0.00
2022-10-13T02:58:23.280Z,0.00
2022-10-13T02:59:23.281Z,0.00
2022-10-13T03:00:23.262Z,0.00
2022-10-13T03:01:23.325Z,0.00
2022-10-13T03:02:23.568Z,0.00
2022-10-13T03:03:23.326Z,0.00
2022-10-13T03:04:23.250Z,0.00
2022-10-13T03:05:23.198Z,0.00
2022-10-13T03:06:23.303Z,0.00
2022-10-13T03:07:23.187Z,0.00
2022-10-13T03:08:23.186Z,0.00
2022-10-13T03:09:23.188Z,0.00
2022-10-13T03:10:23.212Z,0.00
2022-10-13T03:11:23.164Z,0.00
2022-10-13T03:12:23.286Z,0.00
2022-10-13T03:13:23.177Z,0.00
2022-10-13T03:14:23.112Z,0.00
2022-10-13T03:15:23.106Z,0.00
2022-10-13T03:16:23.113Z,0.00
2022-10-13T03:17:23.079Z,0.00
2022-10-13T03:18:23.152Z,0.00
2022-10-13T03:19:23.070Z,0.00
2022-10-13T03:20:23.067Z,0.00
2022-10-13T03:21:23.039Z,0.00
2022-10-13T03:22:23.350Z,0.00
2022-10-13T03:23:23.069Z,0.00
2022-10-13T03:24:23.185Z,0.00
2022-10-13T03:25:23.010Z,0.00
2022-10-13T03:26:22.998Z,0.00
2022-10-13T03:27:22.984Z,0.00
2022-10-13T03:28:23.089Z,0.00
2022-10-13T03:29:22.972Z,0.00
2022-10-13T03:30:23.004Z,0.00
2022-10-13T03:31:22.961Z,0.00
2022-10-13T03:32:23.235Z,0.00
2022-10-13T03:33:22.981Z,0.00
2022-10-13T03:34:22.960Z,0.00
2022-10-13T03:35:22.909Z,0.00
2022-10-13T03:36:22.888Z,0.00
2022-10-13T03:37:22.916Z,0.00
2022-10-13T03:38:22.873Z,0.00
2022-10-13T03:39:22.918Z,0.00
2022-10-13T03:40:22.906Z,0.00
2022-10-13T03:41:22.848Z,0.00
2022-10-13T03:42:22.921Z,0.00
2022-10-13T03:43:22.836Z,0.00
2022-10-13T03:44:22.845Z,0.00
2022-10-13T03:45:22.861Z,0.00
2022-10-13T03:46:22.822Z,0.00
2022-10-13T03:47:22.906Z,0.00
2022-10-13T03:48:22.781Z,0.00
2022-10-13T03:49:22.772Z,0.00
2022-10-13T03:50:22.815Z,0.00
2022-10-13T03:51:22.816Z,0.00
2022-10-13T03:52:22.896Z,0.00
2022-10-13T03:53:22.728Z,0.00
2022-10-13T03:54:22.719Z,0.00
2022-10-13T03:55:22.744Z,0.00
2022-10-13T03:56:22.721Z,0.00
2022-10-13T03:57:22.696Z,0.00
2022-10-13T03:58:22.736Z,0.00
2022-10-13T03:59:22.705Z,0.00
2022-10-13T04:00:22.655Z,0.00
2022-10-13T04:01:22.776Z,0.00
2022-10-13T04:02:22.904Z,0.00
2022-10-13T04:03:22.630Z,0.00
2022-10-13T04:04:22.620Z,0.00
2022-10-13T04:05:22.643Z,0.00
2022-10-13T04:06:22.627Z,0.00
2022-10-13T04:07:22.631Z,0.00
2022-10-13T04:08:22.647Z,0.00
2022-10-13T04:09:22.569Z,0.00
2022-10-13T04:10:22.555Z,0.00
2022-10-13T04:11:22.559Z,0.00
2022-10-13T04:12:22.920Z,0.00
2022-10-13T04:13:22.528Z,0.00
2022-10-13T04:14:22.546Z,0.00
2022-10-13T04:15:22.514Z,0.00
2022-10-13T04:16:22.552Z,0.00
2022-10-13T04:17:22.491Z,0.00
2022-10-13T04:18:22.494Z,0.00
2022-10-13T04:19:22.474Z,0.00
2022-10-13T04:20:22.517Z,0.00
2022-10-13T04:21:22.453Z,0.00
2022-10-13T04:22:22.803Z,0.00
2022-10-13T04:23:22.421Z,0.00
2022-10-13T04:24:22.437Z,0.00
2022-10-13T04:25:22.432Z,0.00
2022-10-13T04:26:22.398Z,0.00
2022-10-13T04:27:22.439Z,0.00
2022-10-13T04:28:22.464Z,0.00
2022-10-13T04:29:22.417Z,0.00
2022-10-13T04:30:22.356Z,0.00
2022-10-13T04:31:22.363Z,0.00
2022-10-13T04:32:22.661Z,0.00
2022-10-13T04:33:22.342Z,0.00
2022-10-13T04:34:22.344Z,0.00
2022-10-13T04:35:22.345Z,0.00
2022-10-13T04:36:22.366Z,0.00
2022-10-13T04:37:22.285Z,0.00
2022-10-13T04:38:22.280Z,0.00
2022-10-13T04:39:22.275Z,0.00
2022-10-13T04:40:22.276Z,0.00
2022-10-13T04:41:22.273Z,0.00
2022-10-13T04:42:22.808Z,0.00
2022-10-13T04:43:22.270Z,0.00
2022-10-13T04:44:22.258Z,0.00
2022-10-13T04:45:22.220Z,0.00
2022-10-13T04:46:22.245Z,0.00
2022-10-13T04:47:22.238Z,0.00
2022-10-13T04:48:22.183Z,0.00
2022-10-13T04:49:22.161Z,0.00
2022-10-13T04:50:22.191Z,0.00
2022-10-13T04:51:22.156Z,0.00
2022-10-13T04:52:22.545Z,0.00
2022-10-13T04:53:22.161Z,0.00
2022-10-13T04:54:22.124Z,0.00
2022-10-13T04:55:22.140Z,0.00
2022-10-13T04:56:22.105Z,0.00
2022-10-13T04:57:22.143Z,0.00
2022-10-13T04:58:22.074Z,0.00
2022-10-13T04:59:22.164Z,0.00
2022-10-13T05:00:22.153Z,0.00
2022-10-13T05:01:22.614Z,0.00
2022-10-13T05:02:22.327Z,0.00
2022-10-13T05:03:22.036Z,0.00
2022-10-13T05:04:22.182Z,0.00
2022-10-13T05:05:22.232Z,0.00
2022-10-13T05:06:21.946Z,0.00
2022-10-13T05:07:22.110Z,0.00
2022-10-13T05:08:22.246Z,0.00
2022-10-13T05:09:21.943Z,0.00
2022-10-13T05:10:21.905Z,0.00
2022-10-13T05:11:21.960Z,0.00
2022-10-13T05:12:22.259Z,0.00
2022-10-13T05:13:21.872Z,0.00
2022-10-13T05:14:21.884Z,0.00
2022-10-13T05:15:21.892Z,0.00
2022-10-13T05:16:21.841Z,0.00
2022-10-13T05:17:21.923Z,0.00
2022-10-13T05:18:21.851Z,0.00
2022-10-13T05:19:21.808Z,0.00
2022-10-13T05:20:21.868Z,0.00
2022-10-13T05:21:21.846Z,0.00
2022-10-13T05:22:22.075Z,0.00
2022-10-13T05:23:21.778Z,0.00
2022-10-13T05:24:21.765Z,0.00
2022-10-13T05:25:21.789Z,0.00
2022-10-13T05:26:21.751Z,0.00
2022-10-13T05:27:21.804Z,0.00
2022-10-13T05:28:21.749Z,0.00
2022-10-13T05:29:21.766Z,5.62
2022-10-13T05:30:21.751Z,5.62
2022-10-13T05:31:21.699Z,5.62
2022-10-13T05:32:22.072Z,5.62
2022-10-13T05:33:21.709Z,5.62
2022-10-13T05:34:21.879Z,5.62
2022-10-13T05:35:21.651Z,11.25
2022-10-13T05:36:21.647Z,11.25
2022-10-13T05:37:21.685Z,11.25
2022-10-13T05:38:25.924Z,11.25
2022-10-13T05:39:21.612Z,11.25
2022-10-13T05:40:21.629Z,16.88
2022-10-13T05:41:21.589Z,16.88
2022-10-13T05:42:21.982Z,16.88
2022-10-13T05:43:21.634Z,16.88
2022-10-13T05:44:21.647Z,22.50
2022-10-13T05:45:21.556Z,22.50
2022-10-13T05:46:21.627Z,22.50
2022-10-13T05:47:21.620Z,22.50
2022-10-13T05:48:21.576Z,22.50
2022-10-13T05:49:21.556Z,22.50
2022-10-13T05:50:21.587Z,22.50
2022-10-13T05:51:21.517Z,22.50
2022-10-13T05:52:21.962Z,28.12
2022-10-13T05:53:21.527Z,28.12
2022-10-13T05:54:21.484Z,33.75
2022-10-13T05:55:21.505Z,33.75
2022-10-13T05:56:21.453Z,39.38
2022-10-13T05:57:21.565Z,39.38
2022-10-13T05:58:21.422Z,39.38
2022-10-13T05:59:26.047Z,45.00
2022-10-13T06:00:21.440Z,45.00
2022-10-13T06:01:21.390Z,45.00
2022-10-13T06:02:21.855Z,45.00
2022-10-13T06:03:21.384Z,45.00
2022-10-13T06:04:21.513Z,45.00
2022-10-13T06:05:21.358Z,45.00
2022-10-13T06:06:21.405Z,50.62
2022-10-13T06:07:21.329Z,50.62
2022-10-13T06:08:21.400Z,56.25
2022-10-13T06:09:21.332Z,56.25
2022-10-13T06:10:21.320Z,56.25
2022-10-13T06:11:21.325Z,56.25
2022-10-13T06:12:21.693Z,61.88
2022-10-13T06:13:21.339Z,67.50
2022-10-13T06:14:21.378Z,67.50
2022-10-13T06:15:24.514Z,67.50
2022-10-13T06:16:21.270Z,73.12
2022-10-13T06:17:21.255Z,78.75
2022-10-13T06:18:21.241Z,90.00
2022-10-13T06:19:21.463Z,90.00
2022-10-13T06:20:21.212Z,90.00
2022-10-13T06:21:21.203Z,90.00
2022-10-13T06:22:21.767Z,90.00
2022-10-13T06:23:21.177Z,90.00
2022-10-13T06:24:21.250Z,95.62
2022-10-13T06:25:21.195Z,95.62
2022-10-13T06:26:21.314Z,95.62
2022-10-13T06:27:21.206Z,95.62
2022-10-13T06:28:21.329Z,101.25
2022-10-13T06:29:21.128Z,101.25
2022-10-13T06:30:21.218Z,106.88
2022-10-13T06:31:21.136Z,112.50
2022-10-13T06:32:21.470Z,118.12
2022-10-13T06:33:21.104Z,123.75
2022-10-13T06:34:21.074Z,135.00
2022-10-13T06:35:21.111Z,140.62
2022-10-13T06:36:21.046Z,140.62
2022-10-13T06:37:26.152Z,151.88
2022-10-13T06:38:21.022Z,146.25
2022-10-13T06:39:21.031Z,146.25
2022-10-13T06:40:21.012Z,151.88
2022-10-13T06:41:21.060Z,163.12
2022-10-13T06:42:21.473Z,174.38
2022-10-13T06:43:20.968Z,185.62
2022-10-13T06:44:20.964Z,191.25
2022-10-13T06:45:20.950Z,202.50
2022-10-13T06:46:20.985Z,213.75
2022-10-13T06:47:20.933Z,213.75
2022-10-13T06:48:20.926Z,219.38
2022-10-13T06:49:20.924Z,225.00
2022-10-13T06:50:20.958Z,225.00
2022-10-13T06:51:20.941Z,253.12
2022-10-13T06:52:21.280Z,286.88
2022-10-13T06:53:20.926Z,298.12
2022-10-13T06:54:21.164Z,298.12
2022-10-13T06:55:20.899Z,298.12
2022-10-13T06:56:20.834Z,309.38
2022-10-13T06:57:20.884Z,315.00
2022-10-13T06:58:20.872Z,337.50
2022-10-13T06:59:20.814Z,360.00
2022-10-13T07:00:20.849Z,354.38
2022-10-13T07:01:20.820Z,320.62
2022-10-13T07:02:21.163Z,320.62
2022-10-13T07:03:20.846Z,337.50
2022-10-13T07:04:20.810Z,354.38
2022-10-13T07:05:20.863Z,354.38
2022-10-13T07:06:20.824Z,343.12
2022-10-13T07:07:20.760Z,303.75
2022-10-13T07:08:20.900Z,286.88
2022-10-13T07:09:20.794Z,275.62
2022-10-13T07:10:20.711Z,275.62
2022-10-13T07:11:20.698Z,270.00
2022-10-13T07:12:21.060Z,275.62
2022-10-13T07:14:20.708Z,286.88
2022-10-13T07:15:20.669Z,298.12
2022-10-13T07:16:20.650Z,303.75
2022-10-13T07:17:21.113Z,303.75
2022-10-13T07:18:20.639Z,303.75
2022-10-13T07:19:20.610Z,309.38
2022-10-13T07:20:20.649Z,298.12
2022-10-13T07:21:20.620Z,292.50
2022-10-13T07:22:20.656Z,281.25
2022-10-13T07:23:20.569Z,270.00
2022-10-13T07:24:20.562Z,270.00
2022-10-13T07:25:20.609Z,286.88
2022-10-13T07:26:20.542Z,309.38
2022-10-13T07:27:20.885Z,343.12
2022-10-13T07:28:20.613Z,365.62
2022-10-13T07:29:20.510Z,337.50
2022-10-13T07:30:20.498Z,292.50
2022-10-13T07:31:20.541Z,275.62
2022-10-13T07:32:20.549Z,270.00
2022-10-13T07:33:20.539Z,292.50
2022-10-13T07:34:20.458Z,371.25
2022-10-13T07:35:20.543Z,635.62
2022-10-13T07:36:20.437Z,540.00
2022-10-13T07:37:20.902Z,641.25
2022-10-13T07:38:20.428Z,725.62
2022-10-13T07:39:20.458Z,630.00
2022-10-13T07:40:20.405Z,663.75
2022-10-13T07:41:20.456Z,585.00
2022-10-13T07:42:20.378Z,703.12
2022-10-13T07:43:20.371Z,765.00
2022-10-13T07:44:20.370Z,641.25
2022-10-13T07:45:20.419Z,708.75
2022-10-13T07:46:20.346Z,646.88
2022-10-13T07:47:20.770Z,731.25
2022-10-13T07:48:20.314Z,652.50
2022-10-13T07:49:20.373Z,691.88
2022-10-13T07:50:20.428Z,708.75
2022-10-13T07:51:20.420Z,646.88
2022-10-13T07:52:20.691Z,517.50
2022-10-13T07:53:20.273Z,556.88
2022-10-13T07:54:23.759Z,748.12
2022-10-13T07:55:20.313Z,736.88
2022-10-13T07:56:20.421Z,748.12
2022-10-13T07:57:20.249Z,838.12
2022-10-13T07:58:20.226Z,736.88
2022-10-13T07:59:20.269Z,691.88
2022-10-13T08:00:20.293Z,691.88
2022-10-13T08:01:20.260Z,731.25
2022-10-13T08:02:20.629Z,1006.88
2022-10-13T08:03:20.200Z,888.75
2022-10-13T08:04:20.168Z,849.38
2022-10-13T08:05:20.168Z,843.75
2022-10-13T08:06:20.144Z,843.75
2022-10-13T08:07:20.535Z,826.88
2022-10-13T08:08:20.193Z,804.38
2022-10-13T08:09:20.107Z,821.25
2022-10-13T08:10:20.158Z,888.75
2022-10-13T08:11:20.085Z,1203.75
2022-10-13T08:12:20.398Z,1051.88
2022-10-13T08:13:20.089Z,967.50
2022-10-13T08:14:20.211Z,922.50
2022-10-13T08:15:20.062Z,1018.12
2022-10-13T08:16:20.084Z,1051.88
2022-10-13T08:17:20.303Z,995.62
2022-10-13T08:18:20.025Z,1130.62
2022-10-13T08:19:20.030Z,1473.75
2022-10-13T08:20:19.990Z,1366.88
2022-10-13T08:22:21.901Z,1434.38
2022-10-13T08:23:20.030Z,1417.50
2022-10-13T08:24:20.005Z,1456.88
2022-10-13T08:25:19.958Z,1456.88
2022-10-13T08:26:19.965Z,1490.62
2022-10-13T08:27:20.326Z,1434.38
2022-10-13T08:28:20.004Z,1378.12
2022-10-13T08:29:23.042Z,1462.50
2022-10-13T08:30:20.168Z,1530.00
2022-10-13T08:31:20.223Z,1552.50
2022-10-13T08:32:20.116Z,1479.38
2022-10-13T08:33:19.936Z,1496.25
2022-10-13T08:34:19.905Z,1563.75
2022-10-13T08:35:19.843Z,1535.62
2022-10-13T08:36:19.981Z,1355.62
2022-10-13T08:37:19.949Z,1265.62
2022-10-13T08:38:19.880Z,1175.62
2022-10-13T08:39:19.823Z,1186.88
2022-10-13T08:40:19.857Z,1355.62
2022-10-13T08:41:19.802Z,1310.62
2022-10-13T08:42:20.046Z,1209.38
2022-10-13T08:43:19.774Z,1254.38
2022-10-13T08:45:40.293Z,1096.88
2022-10-13T08:46:19.780Z,1046.25
2022-10-13T08:47:19.817Z,1029.38
2022-10-13T08:48:19.735Z,990.00
2022-10-13T08:49:19.752Z,978.75
2022-10-13T08:50:19.751Z,995.62
2022-10-13T08:51:19.715Z,1057.50
2022-10-13T08:52:19.962Z,990.00
2022-10-13T08:53:19.745Z,1051.88
2022-10-13T08:54:19.674Z,855.00
2022-10-13T08:55:19.754Z,815.62
2022-10-13T08:56:19.641Z,691.88
2022-10-13T08:57:19.911Z,641.25
2022-10-13T08:58:19.839Z,641.25
2022-10-13T08:59:19.619Z,579.38
2022-10-13T09:00:19.603Z,573.75
2022-10-13T09:01:19.640Z,630.00
2022-10-13T09:02:19.579Z,736.88
2022-10-13T09:03:19.649Z,736.88
2022-10-13T09:04:19.636Z,652.50
2022-10-13T09:05:19.548Z,720.00
2022-10-13T09:06:19.544Z,686.25
2022-10-13T09:07:19.688Z,669.38
2022-10-13T09:08:19.514Z,855.00
2022-10-13T09:09:19.513Z,945.00
2022-10-13T09:10:19.603Z,900.00
2022-10-13T09:11:19.485Z,984.38
2022-10-13T09:12:19.726Z,1642.50
2022-10-13T09:13:19.485Z,1760.62
2022-10-13T09:14:19.458Z,1102.50
2022-10-13T09:15:19.471Z,1063.12
2022-10-13T09:16:19.498Z,1597.50
2022-10-13T09:17:19.435Z,1687.50
2022-10-13T09:18:19.411Z,1659.38
2022-10-13T09:19:19.458Z,1816.88
2022-10-13T09:20:19.393Z,1980.00
2022-10-13T09:21:19.393Z,2137.50
2022-10-13T09:22:19.663Z,2070.00
2022-10-13T09:23:19.415Z,1912.50
2022-10-13T09:24:19.414Z,1878.75
2022-10-13T09:25:19.437Z,1597.50
2022-10-13T09:26:19.341Z,1490.62
2022-10-13T09:27:19.330Z,1411.88
2022-10-13T09:28:19.367Z,1220.62
2022-10-13T09:29:19.413Z,1198.12
2022-10-13T09:30:19.407Z,1170.00
2022-10-13T09:31:19.301Z,1215.00
2022-10-13T09:32:19.672Z,1125.00
2022-10-13T09:33:19.267Z,1046.25
2022-10-13T09:34:19.298Z,1001.25
2022-10-13T09:35:19.292Z,1001.25
2022-10-13T09:36:19.231Z,1035.00
2022-10-13T09:37:19.984Z,1040.62
2022-10-13T09:38:19.205Z,1023.75
2022-10-13T09:39:19.225Z,1006.88
2022-10-13T09:40:19.192Z,1012.50
2022-10-13T09:41:19.231Z,1023.75
2022-10-13T09:42:19.307Z,1018.12
2022-10-13T09:43:19.158Z,1018.12
2022-10-13T09:44:19.638Z,1006.88
2022-10-13T09:45:19.157Z,1006.88
2022-10-13T09:46:19.201Z,995.62
2022-10-13T09:47:19.123Z,990.00
2022-10-13T09:48:19.107Z,995.62
2022-10-13T09:49:19.130Z,1029.38
2022-10-13T09:50:19.099Z,1012.50
2022-10-13T09:51:19.086Z,1001.25
2022-10-13T09:52:19.510Z,1001.25
2022-10-13T09:53:19.266Z,995.62
2022-10-13T09:54:19.063Z,995.62
2022-10-13T09:55:19.084Z,995.62
2022-10-13T09:56:19.036Z,1018.12
2022-10-13T09:57:19.125Z,1023.75
2022-10-13T09:58:19.050Z,1001.25
2022-10-13T09:59:19.028Z,1006.88
2022-10-13T10:00:19.071Z,995.62
2022-10-13T10:01:19.031Z,1186.88
2022-10-13T10:02:21.260Z,973.12
2022-10-13T10:03:18.984Z,973.12
2022-10-13T10:04:19.041Z,973.12
2022-10-13T10:05:19.101Z,978.75
2022-10-13T10:06:19.389Z,984.38
2022-10-13T10:07:19.258Z,978.75
2022-10-13T10:08:20.552Z,1012.50
2022-10-13T10:09:18.904Z,1051.88
2022-10-13T10:10:18.906Z,990.00
2022-10-13T10:11:18.932Z,990.00
2022-10-13T10:12:19.695Z,984.38
2022-10-13T10:13:18.925Z,995.62
2022-10-13T10:14:18.914Z,1001.25
2022-10-13T10:15:18.900Z,1057.50
2022-10-13T10:16:18.871Z,1023.75
2022-10-13T10:17:19.092Z,1029.38
2022-10-13T10:18:18.812Z,1102.50
2022-10-13T10:19:18.871Z,1096.88
2022-10-13T10:20:18.800Z,1068.75
2022-10-13T10:21:18.778Z,1068.75
2022-10-13T10:22:18.793Z,1130.62
2022-10-13T10:23:18.757Z,1276.88
2022-10-13T10:24:18.914Z,1136.25
2022-10-13T10:25:18.805Z,1186.88
2022-10-13T10:26:23.504Z,1530.00
2022-10-13T10:28:18.764Z,1293.75
2022-10-13T10:29:18.725Z,1423.12
2022-10-13T10:30:18.754Z,1411.88
2022-10-13T10:31:18.724Z,1456.88
2022-10-13T10:32:19.119Z,1248.75
2022-10-13T10:33:18.676Z,1473.75
2022-10-13T10:34:18.759Z,1479.38
2022-10-13T10:35:18.638Z,1473.75
2022-10-13T10:36:18.636Z,1513.12
2022-10-13T10:37:21.443Z,1490.62
2022-10-13T10:38:18.613Z,1501.88
2022-10-13T10:39:18.695Z,1445.62
2022-10-13T10:40:18.591Z,1310.62
2022-10-13T10:41:18.597Z,1265.62
2022-10-13T10:42:18.822Z,1276.88
2022-10-13T10:43:18.576Z,1243.12
2022-10-13T10:44:18.639Z,1209.38
2022-10-13T10:45:18.597Z,1164.38
2022-10-13T10:46:18.552Z,1147.50
2022-10-13T10:47:21.038Z,1158.75
2022-10-13T10:48:18.517Z,1147.50
2022-10-13T10:49:18.534Z,1130.62
2022-10-13T10:50:18.488Z,1130.62
2022-10-13T10:51:18.539Z,1130.62
2022-10-13T10:52:18.469Z,1136.25
2022-10-13T10:53:18.455Z,1158.75
2022-10-13T10:54:18.478Z,1147.50
2022-10-13T10:55:18.464Z,1130.62
2022-10-13T10:56:18.482Z,1119.38
2022-10-13T10:57:18.699Z,1096.88
2022-10-13T10:58:18.427Z,1057.50
2022-10-13T10:59:18.411Z,1023.75
2022-10-13T11:00:18.491Z,1029.38
2022-10-13T11:01:18.463Z,1108.12
2022-10-13T11:02:18.796Z,1226.25
2022-10-13T11:03:18.353Z,1321.88
2022-10-13T11:04:18.447Z,1316.25
2022-10-13T11:05:18.347Z,1276.88
2022-10-13T11:06:18.325Z,1310.62
2022-10-13T11:07:18.361Z,1147.50
2022-10-13T11:08:18.357Z,1170.00
2022-10-13T11:09:18.295Z,1158.75
2022-10-13T11:10:18.309Z,1248.75
2022-10-13T11:11:20.924Z,1355.62
2022-10-13T11:12:18.571Z,1046.25
2022-10-13T11:13:18.283Z,1029.38
2022-10-13T11:14:18.249Z,995.62
2022-10-13T11:15:18.251Z,961.88
2022-10-13T11:16:18.252Z,961.88
2022-10-13T11:17:18.301Z,961.88
2022-10-13T11:18:21.848Z,1057.50
2022-10-13T11:19:18.209Z,1220.62
2022-10-13T11:20:18.229Z,1333.12
2022-10-13T11:21:18.234Z,1265.62
2022-10-13T11:22:18.521Z,1276.88
2022-10-13T11:23:18.236Z,1282.50
2022-10-13T11:24:18.146Z,1310.62
2022-10-13T11:25:18.148Z,1276.88
2022-10-13T11:26:18.131Z,1170.00
2022-10-13T11:27:18.109Z,1102.50
2022-10-13T11:28:18.192Z,1136.25
2022-10-13T11:29:18.103Z,1080.00
2022-10-13T11:30:18.164Z,1006.88
2022-10-13T11:31:18.079Z,1046.25
2022-10-13T11:32:18.369Z,1029.38
2022-10-13T11:33:18.076Z,1063.12
2022-10-13T11:34:18.113Z,1035.00
2022-10-13T11:35:18.252Z,1006.88
2022-10-13T11:36:18.034Z,990.00
2022-10-13T11:37:18.028Z,990.00
2022-10-13T11:38:18.201Z,1001.25
2022-10-13T11:39:18.086Z,995.62
2022-10-13T11:40:18.071Z,1012.50
2022-10-13T11:41:18.008Z,1018.12
2022-10-13T11:42:18.225Z,1023.75
2022-10-13T11:43:17.948Z,995.62
2022-10-13T11:44:18.067Z,1006.88
2022-10-13T11:45:17.944Z,1001.25
2022-10-13T11:46:18.007Z,984.38
2022-10-13T11:47:18.272Z,995.62
2022-10-13T11:48:17.911Z,973.12
2022-10-13T11:49:17.903Z,967.50
2022-10-13T11:50:17.927Z,956.25
2022-10-13T11:51:17.936Z,961.88
2022-10-13T11:52:18.647Z,945.00
2022-10-13T11:53:19.799Z,922.50
2022-10-13T11:54:17.847Z,905.62
2022-10-13T11:55:17.829Z,905.62
2022-10-13T11:56:17.885Z,894.38
2022-10-13T11:57:17.898Z,888.75
2022-10-13T11:58:17.849Z,866.25
2022-10-13T11:59:17.790Z,855.00
2022-10-13T12:00:17.788Z,838.12
2022-10-13T12:01:17.790Z,832.50
2022-10-13T12:02:19.142Z,810.00
2022-10-13T12:03:17.881Z,793.12
2022-10-13T12:04:17.767Z,781.88
2022-10-13T12:05:17.731Z,776.25
2022-10-13T12:06:17.723Z,770.62
2022-10-13T12:07:17.801Z,759.38
2022-10-13T12:08:17.872Z,765.00
2022-10-13T12:09:17.698Z,748.12
2022-10-13T12:10:17.801Z,736.88
2022-10-13T12:11:17.675Z,720.00
2022-10-13T12:12:18.098Z,714.38
2022-10-13T12:13:17.659Z,708.75
2022-10-13T12:14:17.714Z,708.75
2022-10-13T12:15:17.637Z,691.88
2022-10-13T12:16:17.683Z,663.75
2022-10-13T12:17:23.144Z,646.88
2022-10-13T12:18:17.664Z,652.50
2022-10-13T12:19:17.624Z,669.38
2022-10-13T12:20:17.604Z,686.25
2022-10-13T12:21:17.590Z,697.50
2022-10-13T12:22:17.624Z,708.75
2022-10-13T12:23:17.599Z,720.00
2022-10-13T12:24:17.541Z,731.25
2022-10-13T12:25:17.540Z,731.25
2022-10-13T12:26:17.532Z,725.62
2022-10-13T12:27:17.927Z,742.50
2022-10-13T12:28:17.593Z,770.62
2022-10-13T12:29:17.488Z,781.88
2022-10-13T12:30:17.506Z,787.50
2022-10-13T12:31:17.625Z,798.75
2022-10-13T12:32:17.463Z,787.50
2022-10-13T12:33:17.552Z,781.88
2022-10-13T12:34:17.453Z,770.62
2022-10-13T12:35:17.442Z,765.00
2022-10-13T12:36:17.419Z,759.38
2022-10-13T12:37:17.863Z,753.75
2022-10-13T12:38:17.438Z,748.12
2022-10-13T12:39:17.404Z,736.88
2022-10-13T12:40:17.400Z,725.62
2022-10-13T12:41:17.382Z,703.12
2022-10-13T12:42:17.367Z,669.38
2022-10-13T12:43:17.380Z,652.50
2022-10-13T12:44:17.519Z,646.88
2022-10-13T12:45:17.399Z,669.38
2022-10-13T12:46:17.428Z,663.75
2022-10-13T12:47:17.670Z,658.12
2022-10-13T12:48:17.365Z,663.75
2022-10-13T12:49:17.377Z,680.62
2022-10-13T12:50:17.304Z,714.38